Time;durP1;ratioP1;P1;durP2;ratioP2;P2;SDS_P1;SDS_P2;PMS_P1;PMS_P2;Temp;Humidity;BMP_temperature;BMP_pressure;BME280_temperature;BME280_humidity;BME280_pressure;Samples;Min_cycle;Max_cycle;Signal;HPM_P1;HPM_P2
2022/06/18 02:29:46;;;;;;;16.70;11.63;;;;;;;18.96;100.00;96989.47;5101963;27;20383;-63
2022/06/18 02:32:38;;;;;;;13.43;10.95;;;;;;;19.26;100.00;97039.13;5102192;28;20057;-62
2022/06/18 02:35:12;;;;;;;12.13;10.88;;;;;;;18.68;100.00;96973.09;5101978;28;20414;-64
2022/06/18 02:37:39;;;;;;;13.15;11.18;;;;;;;18.84;100.00;97004.09;5101853;28;20537;-64
2022/06/18 02:40:19;;;;;;;12.38;11.07;;;;;;;19.15;100.00;97047.72;5102029;28;20509;-64
2022/06/18 02:42:48;;;;;;;12.25;10.73;;;;;;;19.11;100.00;97041.34;5102021;28;20146;-64
2022/06/18 02:45:18;;;;;;;13.32;11.43;;;;;;;19.08;100.00;97047.03;5101664;28;20048;-63
2022/06/18 02:47:46;;;;;;;19.00;11.93;;;;;;;18.63;100.00;96987.59;5101644;28;20490;-63
2022/06/18 02:50:16;;;;;;;13.88;11.23;;;;;;;18.97;100.00;97052.81;5101762;28;20056;-63
2022/06/18 02:52:48;;;;;;;14.30;11.40;;;;;;;19.02;100.00;97040.31;5101908;28;20054;-64
2022/06/18 02:55:20;;;;;;;18.00;11.98;;;;;;;18.97;100.00;97047.22;5101870;28;20056;-64
2022/06/18 02:57:50;;;;;;;16.95;13.23;;;;;;;18.95;100.00;97055.25;5101478;28;20047;-64
2022/06/18 03:00:17;;;;;;;15.98;12.23;;;;;;;18.76;100.00;97036.28;5101559;28;20047;-63
2022/06/18 03:02:44;;;;;;;17.10;13.60;;;;;;;18.62;100.00;97002.84;5101269;28;20059;-64
2022/06/18 03:05:32;;;;;;;17.38;14.05;;;;;;;18.64;100.00;97048.13;5101406;28;20146;-64
2022/06/18 03:07:58;;;;;;;18.33;14.32;;;;;;;18.49;100.00;97059.97;5101682;28;20056;-63
2022/06/18 03:13:11;;;;;;;17.65;14.02;;;;;;;18.56;100.00;96992.53;5100745;28;20391;-64
2022/06/18 03:15:38;;;;;;;15.80;14.10;;;;;;;18.74;100.00;97019.09;5099210;28;20047;-63
2022/06/18 03:18:06;;;;;;;17.05;13.10;;;;;;;18.86;100.00;97021.31;5100652;28;20450;-64
2022/06/18 03:20:48;;;;;;;17.40;12.85;;;;;;;19.18;100.00;97058.09;5099438;28;20051;-64
2022/06/18 03:23:18;;;;;;;15.75;12.43;;;;;;;19.21;100.00;97057.25;5099395;28;20071;-64
2022/06/18 03:25:46;;;;;;;13.05;10.10;;;;;;;18.87;99.58;96997.66;5100796;28;20497;-66
2022/06/18 03:28:14;;;;;;;12.23;10.40;;;;;;;19.05;97.19;97017.78;5098934;28;20071;-65
2022/06/18 03:30:42;;;;;;;11.40;9.88;;;;;;;19.35;96.28;97062.66;5087512;28;20071;-64
2022/06/18 03:33:10;;;;;;;15.18;10.80;;;;;;;19.05;96.86;97031.84;5087251;28;20060;-63
2022/06/18 03:35:39;;;;;;;14.32;10.52;;;;;;;19.27;96.66;97055.53;5086954;28;20066;-63
2022/06/18 03:38:06;;;;;;;15.70;10.75;;;;;;;19.45;96.07;97067.31;5087098;28;20051;-63
2022/06/18 03:40:32;;;;;;;11.40;10.30;;;;;;;19.42;96.60;97067.38;5087002;28;20052;-64
2022/06/18 03:42:59;;;;;;;11.07;9.98;;;;;;;19.19;95.65;97042.84;5087320;28;20059;-63
2022/06/18 03:45:27;;;;;;;12.70;10.32;;;;;;;19.45;95.24;97061.69;5086994;28;20044;-64
2022/06/18 03:47:54;;;;;;;12.43;10.15;;;;;;;19.60;94.39;97072.69;5086659;28;20415;-63
2022/06/18 03:50:21;;;;;;;11.55;10.32;;;;;;;19.43;94.88;97036.03;5085488;28;20078;-63
2022/06/18 03:52:48;;;;;;;10.98;9.63;;;;;;;19.49;93.33;97039.94;5085379;28;20044;-64
2022/06/18 03:55:16;;;;;;;11.63;10.43;;;;;;;19.73;92.77;97066.00;5086651;28;20052;-63
2022/06/18 03:57:43;;;;;;;13.60;10.52;;;;;;;19.72;92.80;97052.38;5085026;28;20498;-66
2022/06/18 04:00:17;;;;;;;10.98;9.85;;;;;;;19.77;93.11;97055.50;5085703;28;20048;-64
2022/06/18 04:02:44;;;;;;;15.98;10.00;;;;;;;19.74;93.37;97052.75;5085182;28;20063;-64
2022/06/18 04:05:11;;;;;;;13.20;9.52;;;;;;;19.62;93.90;97031.66;5086307;28;20506;-63
2022/06/18 04:07:38;;;;;;;13.27;9.65;;;;;;;19.56;92.70;97030.56;5085160;28;20048;-65
2022/06/18 04:10:06;;;;;;;12.63;9.40;;;;;;;19.81;92.87;97072.28;5085192;28;20078;-64
2022/06/18 04:12:33;;;;;;;12.07;10.65;;;;;;;19.30;91.24;96981.69;5085030;28;20422;-64
2022/06/18 04:15:00;;;;;;;10.50;9.45;;;;;;;19.70;90.86;97037.94;5086790;28;20055;-63
2022/06/18 04:17:27;;;;;;;12.63;9.68;;;;;;;19.44;91.65;97001.06;5084450;28;20055;-64
2022/06/18 04:19:53;;;;;;;10.88;9.77;;;;;;;19.72;92.56;97052.38;5086392;28;20052;-64
2022/06/18 04:22:20;;;;;;;13.48;8.73;;;;;;;19.81;92.67;97049.78;5084701;28;20048;-65
2022/06/18 04:24:47;;;;;;;12.65;10.02;;;;;;;19.28;92.59;97006.59;5084912;28;20078;-64
2022/06/18 04:27:13;;;;;;;17.13;10.18;;;;;;;19.51;94.68;97059.97;5084951;28;20525;-64
2022/06/18 04:29:41;;;;;;;12.90;10.70;;;;;;;19.21;92.57;96970.19;5085500;28;20170;-64
2022/06/18 04:32:07;;;;;;;10.05;9.05;;;;;;;19.89;91.68;97062.47;5085794;28;20073;-64
2022/06/18 04:34:34;;;;;;;10.38;9.18;;;;;;;20.01;90.66;97071.06;5085896;28;20109;-64
2022/06/18 04:37:01;;;;;;;12.23;9.05;;;;;;;19.96;91.36;97067.97;5085484;28;20052;-63
2022/06/18 04:39:28;;;;;;;12.80;9.48;;;;;;;19.93;91.43;97061.22;5085376;28;20060;-65
2022/06/18 04:41:55;;;;;;;11.27;9.20;;;;;;;20.12;89.57;97077.28;5083331;28;20059;-63
2022/06/18 04:44:22;;;;;;;9.30;8.40;;;;;;;20.02;87.07;97038.13;5085820;28;20117;-63
2022/06/18 04:46:49;;;;;;;12.20;9.05;;;;;;;19.85;88.18;97053.34;5083799;28;20388;-64
2022/06/18 04:49:16;;;;;;;9.55;8.55;;;;;;;20.29;88.72;97086.63;5083855;28;20054;-64
2022/06/18 04:51:43;;;;;;;18.15;12.00;;;;;;;19.75;93.06;97096.47;5083821;28;20513;-64
2022/06/18 04:54:09;;;;;;;12.05;10.23;;;;;;;19.80;92.37;97045.38;5083808;28;20465;-64
2022/06/18 04:56:37;;;;;;;10.45;9.27;;;;;;;20.47;89.33;97082.22;5085102;28;20055;-65
2022/06/18 04:59:04;;;;;;;11.68;8.95;;;;;;;20.43;86.71;97030.06;5083567;28;20164;-63
2022/06/18 05:01:31;;;;;;;10.25;8.50;;;;;;;20.99;84.55;97085.13;5084985;28;20129;-65
2022/06/18 05:03:58;;;;;;;10.85;8.45;;;;;;;21.17;83.11;97073.41;5085041;28;20442;-62
2022/06/18 05:06:26;;;;;;;9.27;8.38;;;;;;;21.48;81.24;97088.78;5085141;28;20116;-63
2022/06/18 05:08:53;;;;;;;10.93;7.95;;;;;;;20.64;78.62;96950.78;5083652;28;20498;-63
2022/06/18 05:11:20;;;;;;;11.00;8.07;;;;;;;21.77;78.92;97100.94;5085099;28;20075;-63
2022/06/18 05:13:47;;;;;;;11.15;7.88;;;;;;;21.93;78.20;97098.88;5085134;28;20048;-62
2022/06/18 05:16:14;;;;;;;8.98;8.07;;;;;;;22.10;76.76;97108.91;5083744;28;20055;-64
2022/06/18 05:18:45;;;;;;;11.75;7.15;;;;;;;22.16;74.92;97095.81;5083560;28;20522;-64
2022/06/18 05:21:11;;;;;;;10.48;7.80;;;;;;;21.77;73.01;97028.41;5083760;28;20059;-63
2022/06/18 05:23:38;;;;;;;12.93;7.38;;;;;;;22.45;72.76;97102.25;5084881;28;20508;-64
2022/06/18 05:26:12;;;;;;;9.60;7.53;;;;;;;22.59;72.94;97094.66;5084334;28;20055;-64
2022/06/18 05:28:38;;;;;;;8.13;7.10;;;;;;;22.59;71.95;97123.66;5084308;28;20060;-66
2022/06/18 05:31:05;;;;;;;8.48;7.57;;;;;;;22.42;70.76;97074.94;5083129;28;20552;-66
2022/06/18 05:33:32;;;;;;;9.25;6.63;;;;;;;22.65;70.29;97079.53;5084907;28;20048;-64
2022/06/18 05:35:58;;;;;;;7.70;6.90;;;;;;;23.02;68.00;97120.38;5083166;28;20062;-64
2022/06/18 05:38:26;;;;;;;8.73;6.75;;;;;;;23.15;68.48;97121.19;5084742;28;20461;-63
2022/06/18 05:40:53;;;;;;;11.77;6.95;;;;;;;23.22;68.38;97115.31;5084386;28;20055;-65
2022/06/18 05:43:20;;;;;;;11.02;6.10;;;;;;;23.37;67.56;97122.91;5084926;28;20554;-63
2022/06/18 05:45:46;;;;;;;7.55;5.90;;;;;;;23.41;66.55;97128.47;5083421;28;20052;-64
2022/06/18 05:48:13;;;;;;;7.35;6.25;;;;;;;23.47;66.84;97135.13;5084171;28;20608;-65
2022/06/18 05:50:40;;;;;;;7.40;6.38;;;;;;;23.34;67.59;97100.41;5083154;28;20051;-64
2022/06/18 05:53:07;;;;;;;8.93;7.07;;;;;;;23.15;67.59;97048.50;5081628;28;20059;-63
2022/06/18 05:55:34;;;;;;;125.55;14.90;;;;;;;23.76;66.37;97121.63;5067561;28;20048;-60
2022/06/18 05:58:00;;;;;;;7.07;5.65;;;;;;;24.02;64.73;97123.19;5078178;28;20066;-63
2022/06/18 06:00:30;;;;;;;6.68;5.88;;;;;;;23.99;63.58;97121.28;5083363;28;20044;-63
2022/06/18 06:02:57;;;;;;;6.60;5.55;;;;;;;24.14;62.82;97125.19;5074178;28;20052;-61
2022/06/18 06:05:25;;;;;;;10.00;7.32;;;;;;;24.61;61.37;97125.91;5073635;28;20059;-64
2022/06/18 06:07:52;;;;;;;6.95;6.25;;;;;;;25.00;59.24;97130.94;5074755;28;20504;-61
2022/06/18 06:13:10;;;;;;;8.75;6.25;;;;;;;24.94;59.51;97129.94;5068944;28;20485;-62
2022/06/18 06:15:39;;;;;;;7.25;6.55;;;;;;;24.73;59.84;97093.91;5076753;27;20158;-63
2022/06/18 06:18:06;;;;;;;6.78;5.55;;;;;;;24.92;59.74;97135.28;5095590;28;20079;-61
2022/06/18 06:20:38;;;;;;;7.65;5.95;;;;;;;24.98;58.48;97110.75;5084025;28;20059;-62
2022/06/18 06:23:08;;;;;;;8.93;7.22;;;;;;;24.30;62.03;97110.88;5083901;28;20052;-61
2022/06/18 06:25:36;;;;;;;8.60;6.95;;;;;;;23.92;63.97;97136.44;5083654;28;20048;-62
2022/06/18 06:28:04;;;;;;;9.52;7.65;;;;;;;23.93;63.88;97066.50;5083317;28;20056;-60
2022/06/18 06:30:30;;;;;;;13.40;8.43;;;;;;;24.64;62.42;97133.50;5083626;28;20063;-62
2022/06/18 06:32:57;;;;;;;9.45;8.35;;;;;;;24.24;62.99;97132.53;5082296;28;20375;-62
2022/06/18 06:35:24;;;;;;;13.15;9.40;;;;;;;23.69;66.26;97133.19;5083720;28;20545;-61
2022/06/18 06:37:51;;;;;;;11.13;8.48;;;;;;;23.16;66.61;97106.59;5082561;28;20055;-61
2022/06/18 06:40:17;;;;;;;8.35;7.55;;;;;;;23.19;68.41;97124.72;5071901;28;20060;-63
2022/06/18 06:42:47;;;;;;;9.60;7.63;;;;;;;23.04;66.13;97134.84;5073945;28;20118;-62
2022/06/18 06:45:20;;;;;;;8.40;7.30;;;;;;;23.62;65.79;97130.59;5073162;28;20064;-61
2022/06/18 06:47:48;;;;;;;7.93;7.13;;;;;;;23.39;65.97;97142.25;5062767;28;20044;-61
2022/06/18 06:50:17;;;;;;;8.55;7.68;;;;;;;22.72;64.62;97115.22;5066765;28;20262;-63
2022/06/18 06:52:43;;;;;;;9.88;7.25;;;;;;;22.62;65.51;97122.78;5073221;28;20057;-61
2022/06/18 06:58:00;;;;;;;8.40;7.38;;;;;;;22.39;66.82;97056.06;5067168;28;20047;-64
2022/06/18 07:00:27;;;;;;;8.00;7.20;;;;;;;22.71;67.67;97130.59;5082574;28;20056;-61
2022/06/18 07:02:54;;;;;;;10.65;7.50;;;;;;;22.75;67.45;97131.28;5083359;28;20048;-60
2022/06/18 07:05:26;;;;;;;10.75;7.45;;;;;;;23.07;67.74;97131.13;5075704;28;20075;-65
2022/06/18 07:07:53;;;;;;;9.25;7.80;;;;;;;21.85;68.99;97086.22;5067402;28;20067;-62
2022/06/18 07:10:20;;;;;;;8.73;7.80;;;;;;;22.77;68.41;97137.28;5080606;28;20525;-62
2022/06/18 07:12:47;;;;;;;9.63;8.60;;;;;;;23.23;64.73;97145.16;5085928;28;20055;-61
2022/06/18 07:15:14;;;;;;;10.02;7.85;;;;;;;23.17;62.43;97084.78;5087436;28;20055;-65
2022/06/18 07:17:41;;;;;;;10.77;8.00;;;;;;;23.37;63.79;97139.88;5083146;28;20607;-61
2022/06/18 07:20:15;;;;;;;10.63;6.70;;;;;;;22.73;64.11;97043.41;5072094;28;20044;-63
2022/06/18 07:22:41;;;;;;;7.37;6.67;;;;;;;23.33;64.01;97138.41;5070542;28;20064;-62
2022/06/18 07:25:10;;;;;;;9.10;7.60;;;;;;;23.16;64.42;97148.19;5081246;28;20166;-62
2022/06/18 07:27:37;;;;;;;8.05;7.28;;;;;;;22.76;64.69;97147.00;5064137;28;20127;-64
2022/06/18 07:30:05;;;;;;;8.20;7.40;;;;;;;;;;5070098;28;20051;-64
2022/06/18 07:32:32;;;;;;;8.43;7.32;;;;;;;22.72;65.55;97154.78;5083293;28;20048;-65
2022/06/18 07:34:59;;;;;;;9.35;7.68;;;;;;;22.51;65.18;97107.38;5066124;28;20044;-61
2022/06/18 07:37:28;;;;;;;7.43;6.50;;;;;;;22.55;63.85;97105.25;5084095;28;20486;-61
2022/06/18 07:39:55;;;;;;;11.65;7.95;;;;;;;22.20;65.03;97095.72;5085474;28;20521;-65
2022/06/18 07:42:23;;;;;;;8.27;7.38;;;;;;;23.49;64.58;97146.78;5083908;28;20134;-61
2022/06/18 07:44:50;;;;;;;13.95;7.35;;;;;;;22.87;64.40;97150.31;5085166;28;20052;-61
2022/06/18 07:47:18;;;;;;;8.23;6.97;;;;;;;22.78;64.11;97096.50;5078686;28;20498;-60
2022/06/18 07:49:46;;;;;;;7.05;6.32;;;;;;;23.52;62.72;97140.22;5071666;28;20052;-63
2022/06/18 07:52:14;;;;;;;7.45;6.68;;;;;;;24.12;61.30;97146.72;5066431;28;20053;-61
2022/06/18 07:54:43;;;;;;;7.63;6.93;;;;;;;24.58;59.69;97152.31;5066387;28;20414;-63
2022/06/18 07:57:17;;;;;;;6.25;5.65;;;;;;;24.18;58.51;97142.06;5064986;28;20075;-61
2022/06/18 07:59:44;;;;;;;7.00;5.70;;;;;;;23.96;59.92;97156.13;5065918;28;20178;-61
2022/06/18 08:02:11;;;;;;;8.05;7.25;;;;;;;23.81;60.33;97147.31;5065898;28;20077;-62
2022/06/18 08:04:37;;;;;;;6.90;6.25;;;;;;;23.47;61.87;97104.03;5066231;28;20055;-63
2022/06/18 08:07:04;;;;;;;9.27;7.35;;;;;;;23.75;61.60;97170.97;5064692;28;20160;-62
2022/06/18 08:09:32;;;;;;;6.60;5.90;;;;;;;23.39;62.55;97160.03;5066078;28;20088;-64
2022/06/18 08:12:01;;;;;;;11.15;9.93;;;;;;;23.31;61.79;97081.53;5065834;28;20056;-63
2022/06/18 08:14:28;;;;;;;12.30;11.00;;;;;;;23.57;62.25;97153.78;5066067;28;20059;-62
2022/06/18 08:16:54;;;;;;;10.32;7.03;;;;;;;23.72;60.85;97160.56;5068708;28;20044;-64
2022/06/18 08:19:21;;;;;;;8.23;7.05;;;;;;;24.31;59.07;97146.41;5085715;28;20059;-62
2022/06/18 08:21:48;;;;;;;12.13;9.77;;;;;;;23.87;62.58;97161.66;5086082;28;20066;-62
2022/06/18 08:24:19;;;;;;;9.52;8.10;;;;;;;23.91;62.26;97139.72;5086091;28;20063;-61
2022/06/18 08:26:47;;;;;;;12.55;8.55;;;;;;;23.43;62.92;97180.50;5085735;28;20059;-61
2022/06/18 08:29:17;;;;;;;9.63;7.63;;;;;;;23.59;62.56;97134.31;5075605;28;20122;-60
2022/06/18 08:31:45;;;;;;;9.82;7.78;;;;;;;23.49;62.06;97163.75;5066550;28;20511;-62
2022/06/18 08:34:13;;;;;;;10.63;8.27;;;;;;;23.70;60.86;97180.03;5063221;28;20056;-60
2022/06/18 08:36:47;;;;;;;10.95;6.70;;;;;;;23.49;60.87;97186.38;5067346;28;20189;-60
2022/06/18 08:39:14;;;;;;;7.43;6.60;;;;;;;22.66;64.52;97133.97;5065931;28;20056;-62
2022/06/18 08:41:49;;;;;;;8.52;7.63;;;;;;;22.94;64.63;97192.47;5063829;28;20052;-60
2022/06/18 08:44:18;;;;;;;8.55;7.53;;;;;;;23.24;64.09;97186.31;5080381;28;20552;-60
2022/06/18 08:47:29;;;;;;;9.07;7.97;;;;;;;23.40;63.76;97183.41;5065316;28;20178;-60
2022/06/18 08:50:07;;;;;;;8.05;7.35;;;;;;;23.89;62.89;97167.69;5063437;28;20135;-62
2022/06/18 08:52:52;;;;;;;8.52;6.80;;;;;;;24.54;62.03;97173.53;5065492;28;20056;-61
2022/06/18 08:55:44;;;;;;;9.98;7.22;;;;;;;24.70;60.59;97177.00;5080350;28;20059;-60
2022/06/18 08:58:32;;;;;;;10.65;7.40;;;;;;;23.39;60.17;96955.66;5080043;28;20520;-62
2022/06/18 09:01:24;;;;;;;9.52;6.68;;;;;;;24.59;60.13;97168.09;5064946;28;20060;-63
2022/06/18 09:04:22;;;;;;;9.17;6.87;;;;;;;24.00;61.47;97176.63;5064705;28;20058;-61
2022/06/18 09:07:03;;;;;;;8.50;7.22;;;;;;;23.38;61.73;97027.56;5080500;28;20291;-61
2022/06/18 09:09:39;;;;;;;11.13;6.93;;;;;;;23.89;61.14;97176.16;5080201;28;20056;-61
2022/06/18 09:12:24;;;;;;;10.02;6.82;;;;;;;23.49;63.36;97192.03;5080085;28;20537;-61
2022/06/18 09:15:10;;;;;;;11.10;7.68;;;;;;;23.44;64.30;97184.13;5080108;28;20067;-60
2022/06/18 09:17:36;;;;;;;16.05;10.13;;;;;;;23.24;64.81;97191.97;5070310;28;20059;-62
2022/06/18 09:20:17;;;;;;;8.30;7.47;;;;;;;23.40;64.00;97180.59;5084957;28;20249;-61
2022/06/18 09:22:58;;;;;;;13.18;6.40;;;;;;;22.87;64.91;97178.56;5085063;28;20540;-60
2022/06/18 09:25:34;;;;;;;9.35;7.43;;;;;;;23.18;64.44;97188.13;5083088;28;20058;-61
2022/06/18 09:28:14;;;;;;;13.27;9.20;;;;;;;23.88;64.24;97180.25;5082907;28;20056;-61
2022/06/18 09:30:52;;;;;;;6.70;6.20;;;;;;;24.04;60.88;97132.03;5083675;28;20100;-60
2022/06/18 09:33:22;;;;;;;8.35;6.30;;;;;;;24.83;59.15;97177.72;5084253;28;20060;-61
2022/06/18 09:36:03;;;;;;;7.90;7.10;;;;;;;24.44;57.47;97070.69;5084798;28;20506;-61
2022/06/18 09:38:39;;;;;;;8.52;6.85;;;;;;;24.89;59.46;97164.56;5082679;28;20055;-60
2022/06/18 09:41:31;;;;;;;8.05;6.00;;;;;;;23.74;60.47;97175.06;5084460;28;20052;-61
2022/06/18 09:44:07;;;;;;;7.65;6.40;;;;;;;23.42;63.42;97186.59;5084772;28;20525;-61
2022/06/18 09:46:40;;;;;;;7.38;6.68;;;;;;;23.88;61.07;97205.72;5084097;28;20043;-61
2022/06/18 09:49:07;;;;;;;7.03;6.38;;;;;;;23.63;61.54;97152.75;5082937;28;20056;-62
2022/06/18 09:51:42;;;;;;;7.53;6.60;;;;;;;24.32;59.24;97201.81;5084568;28;20159;-60
2022/06/18 09:54:12;;;;;;;10.27;6.32;;;;;;;24.49;58.31;97206.06;5084633;28;20063;-59
2022/06/18 09:56:45;;;;;;;6.53;5.93;;;;;;;23.31;59.22;97056.09;5082739;28;20060;-60
2022/06/18 09:59:23;;;;;;;10.10;6.10;;;;;;;24.22;58.24;97137.03;5084762;28;20121;-60
2022/06/18 10:01:53;;;;;;;8.43;7.20;;;;;;;24.76;58.12;97206.34;5083955;28;20048;-64
2022/06/18 10:07:25;;;;;;;6.60;5.95;;;;;;;24.01;58.93;97192.38;5084009;28;20060;-60
2022/06/18 10:10:02;;;;;;;12.90;7.88;;;;;;;23.96;60.06;97221.22;5084232;28;20055;-60
2022/06/18 10:12:42;;;;;;;5.93;5.32;;;;;;;22.29;65.21;97195.47;5083828;28;20048;-59
2022/06/18 10:15:13;;;;;;;9.50;6.57;;;;;;;22.32;64.03;97157.88;5082679;28;20056;-60
2022/06/18 10:18:21;;;;;;;7.00;6.38;;;;;;;22.32;64.81;97171.19;5079060;28;20067;-61
2022/06/18 10:20:59;;;;;;;8.93;6.22;;;;;;;22.06;66.72;97209.78;5063960;28;20052;-60
2022/06/18 10:23:38;;;;;;;7.13;5.68;;;;;;;22.04;67.98;97234.81;5062591;28;20056;-60
2022/06/18 10:26:24;;;;;;;9.13;7.72;;;;;;;21.84;68.17;97236.94;5062948;28;20078;-60
2022/06/18 10:29:17;;;;;;;9.38;7.28;;;;;;;20.74;68.76;97056.69;5062462;28;20083;-61
2022/06/18 10:31:50;;;;;;;8.88;6.97;;;;;;;21.94;68.19;97241.50;5062699;28;20052;-60
2022/06/18 10:34:29;;;;;;;7.20;5.53;;;;;;;21.54;70.44;97245.69;5062620;28;20080;-59
2022/06/18 10:37:08;;;;;;;7.13;6.20;;;;;;;21.75;70.79;97242.38;5063842;28;20067;-61
2022/06/18 10:40:02;;;;;;;7.32;5.60;;;;;;;22.35;69.40;97249.38;5065739;28;20059;-61
2022/06/18 10:42:43;;;;;;;5.63;5.07;;;;;;;22.29;68.74;97243.44;5067913;28;20045;-60
2022/06/18 10:45:35;;;;;;;6.22;5.63;;;;;;;22.53;68.17;97248.91;5066296;28;20059;-61
2022/06/18 10:48:10;;;;;;;6.32;5.72;;;;;;;22.77;67.13;97258.75;5067446;28;20049;-60
2022/06/18 10:50:49;;;;;;;6.13;5.20;;;;;;;22.75;64.00;97194.22;5067564;28;20082;-61
2022/06/18 10:53:18;;;;;;;9.23;6.18;;;;;;;22.13;63.37;97034.63;5066130;28;20048;-61
2022/06/18 10:56:03;;;;;;;11.25;6.68;;;;;;;22.86;63.27;97241.97;5066101;28;20056;-60
2022/06/18 10:58:30;;;;;;;8.70;6.30;;;;;;;23.09;62.14;97258.66;5033993;28;92446;-61
2022/06/18 11:01:00;;;;;;;5.75;4.88;;;;;;;23.62;61.32;97240.91;5008065;28;20049;-60
2022/06/18 11:03:30;;;;;;;7.82;4.50;;;;;;;23.51;59.56;97241.25;5007634;28;20060;-60
2022/06/18 11:06:03;;;;;;;4.47;3.92;;;;;;;23.10;59.98;97237.63;5007335;28;20132;-59
2022/06/18 11:08:33;;;;;;;3.92;3.55;;;;;;;23.06;60.52;97242.59;5007713;28;20500;-60
2022/06/18 11:11:14;;;;;;;6.47;5.45;;;;;;;23.03;59.84;97209.56;5007323;28;20053;-60
2022/06/18 11:13:44;;;;;;;5.32;4.43;;;;;;;22.72;61.12;97245.16;5007275;28;20098;-61
2022/06/18 11:16:22;;;;;;;5.25;3.78;;;;;;;23.09;59.24;97219.09;5006202;28;20406;-61
2022/06/18 11:18:51;;;;;;;5.80;4.63;;;;;;;23.62;58.75;97261.50;5007826;28;20516;-60
2022/06/18 11:21:39;;;;;;;4.72;4.00;;;;;;;23.20;58.83;97253.47;5006975;28;20060;-60
2022/06/18 11:24:14;;;;;;;3.97;3.67;;;;;;;22.79;59.40;97244.97;5006020;28;20537;-60
2022/06/18 11:26:48;;;;;;;4.60;3.63;;;;;;;22.93;59.15;97217.13;5007035;28;20543;-60
2022/06/18 11:29:41;;;;;;;4.20;3.60;;;;;;;23.24;57.77;97180.66;5006934;28;20057;-59
2022/06/18 11:32:16;;;;;;;4.07;3.78;;;;;;;22.91;57.79;97150.97;5005836;28;20073;-60
2022/06/18 11:35:11;;;;;;;6.40;4.50;;;;;;;23.72;56.70;97256.75;5007326;28;20447;-61
2022/06/18 11:37:39;;;;;;;4.50;4.10;;;;;;;24.22;55.23;97251.09;5006683;28;20690;-60
2022/06/18 11:40:06;;;;;;;4.28;3.85;;;;;;;23.56;58.56;97245.53;5005537;28;20052;-60
2022/06/18 11:42:43;;;;;;;3.33;3.13;;;;;;;23.27;58.03;97256.13;5005943;28;20065;-59
2022/06/18 11:45:50;;;;;;;6.13;4.00;;;;;;;23.62;56.80;97257.88;5007453;28;20054;-60
2022/06/18 11:48:40;;;;;;;5.47;3.92;;;;;;;24.55;55.04;97248.78;5006745;28;20068;-61
2022/06/18 11:51:42;;;;;;;5.85;4.80;;;;;;;25.38;52.70;97240.50;5006652;28;20053;-60
2022/06/18 11:54:33;;;;;;;4.47;4.15;;;;;;;25.80;51.04;97239.63;5007093;28;20050;-60
2022/06/18 11:57:15;;;;;;;4.18;3.88;;;;;;;24.64;53.04;97201.50;5006841;28;20077;-59
2022/06/18 11:59:55;;;;;;;4.07;3.78;;;;;;;25.45;51.18;97192.03;5006734;28;20054;-59
2022/06/18 12:02:28;;;;;;;3.55;3.20;;;;;;;24.62;50.70;97229.50;5006451;28;20141;-59
2022/06/18 12:05:23;;;;;;;6.28;5.65;;;;;;;25.22;51.66;97239.44;5005416;28;20058;-59
2022/06/18 12:07:54;;;;;;;5.65;3.78;;;;;;;25.12;50.88;97217.94;5006716;28;20058;-61
2022/06/18 12:10:33;;;;;;;4.88;4.45;;;;;;;25.61;50.03;97240.03;5004836;28;20061;-59
2022/06/18 12:13:13;;;;;;;4.97;4.50;;;;;;;26.09;49.24;97233.63;5006806;28;20049;-60
2022/06/18 12:15:44;;;;;;;6.32;5.30;;;;;;;26.35;48.59;97218.72;5006557;28;20085;-61
2022/06/18 12:18:26;;;;;;;6.18;4.60;;;;;;;26.52;48.44;97228.50;5015999;28;20586;-59
2022/06/18 12:20:56;;;;;;;7.75;5.10;;;;;;;26.73;47.64;97226.84;5024464;28;20060;-59
2022/06/18 12:23:54;;;;;;;4.30;3.22;;;;;;;26.45;48.14;97222.34;5026077;28;20061;-59
2022/06/18 12:26:36;;;;;;;7.90;6.07;;;;;;;26.21;48.36;97195.78;5024571;28;20068;-61
2022/06/18 12:29:23;;;;;;;5.03;4.45;;;;;;;26.09;49.53;97227.94;5025806;28;20057;-60
2022/06/18 12:32:04;;;;;;;5.88;4.43;;;;;;;25.74;50.90;97229.34;5024532;28;20057;-60
2022/06/18 12:35:03;;;;;;;9.45;6.10;;;;;;;26.82;48.29;97218.31;5025652;28;20421;-59
2022/06/18 12:38:15;;;;;;;7.00;4.90;;;;;;;29.03;43.21;97210.31;5024007;28;20045;-60
2022/06/18 12:40:56;;;;;;;5.30;4.68;;;;;;;27.82;44.08;97193.34;5024021;28;20076;-60
2022/06/18 12:43:45;;;;;;;5.53;4.15;;;;;;;27.43;45.20;97212.28;5025070;28;20069;-60
2022/06/18 12:46:27;;;;;;;4.82;4.43;;;;;;;28.46;43.31;97213.75;5025527;28;20060;-59
2022/06/18 12:49:01;;;;;;;5.15;4.22;;;;;;;28.76;41.91;97121.34;5025181;28;20057;-59
2022/06/18 12:51:40;;;;;;;3.95;3.58;;;;;;;28.51;42.49;97213.09;5025679;28;20559;-60
2022/06/18 12:54:31;;;;;;;5.05;3.85;;;;;;;29.02;41.81;97188.00;5025584;28;20468;-61
2022/06/18 12:57:00;;;;;;;5.15;3.70;;;;;;;27.50;42.98;97211.94;5023414;28;20084;-61
2022/06/18 13:00:00;;;;;;;4.35;3.95;;;;;;;27.71;43.74;97210.91;5025346;28;20060;-59
2022/06/18 13:02:50;;;;;;;5.00;4.55;;;;;;;29.63;40.67;97209.13;5024064;28;20068;-59
2022/06/18 13:05:50;;;;;;;3.95;3.65;;;;;;;27.59;43.96;97209.06;5023954;28;20057;-59
2022/06/18 13:08:22;;;;;;;4.38;3.97;;;;;;;28.03;42.95;97198.00;5023775;28;20431;-59
2022/06/18 13:11:14;;;;;;;3.92;3.63;;;;;;;28.14;43.15;97206.81;5024909;28;20049;-60
2022/06/18 13:13:58;;;;;;;4.20;3.80;;;;;;;26.97;44.86;97199.34;5025121;28;20065;-59
2022/06/18 13:16:45;;;;;;;4.32;3.80;;;;;;;26.52;46.04;97199.34;5023566;28;20558;-59
2022/06/18 13:19:19;;;;;;;8.50;4.10;;;;;;;26.83;45.69;97208.53;5007928;28;20050;-59
2022/06/18 13:21:46;;;;;;;3.92;3.63;;;;;;;25.00;46.72;97102.59;5004043;28;20054;-59
2022/06/18 13:30:05;;;;;;;3.38;3.08;;;;;;;25.83;48.09;97181.16;5004905;28;20519;-61
2022/06/18 13:32:49;;;;;;;3.53;3.30;;;;;;;25.48;48.42;97131.50;5004975;28;20053;-59
2022/06/18 13:35:41;;;;;;;3.53;3.22;;;;;;;25.98;47.02;97188.63;5003448;28;20064;-59
2022/06/18 13:38:14;;;;;;;3.35;3.15;;;;;;;25.86;47.33;97185.91;5004685;28;20495;-60
2022/06/18 13:40:53;;;;;;;4.03;3.35;;;;;;;25.64;47.42;97199.38;5005258;28;20144;-60
2022/06/18 13:43:45;;;;;;;3.40;3.08;;;;;;;25.39;47.41;97188.22;5004760;28;20060;-61
2022/06/18 13:46:22;;;;;;;4.93;4.07;;;;;;;25.82;46.96;97174.69;5004680;28;20054;-60
2022/06/18 13:48:59;;;;;;;3.30;3.10;;;;;;;25.88;46.08;97166.31;5004821;28;20053;-60
2022/06/18 13:51:32;;;;;;;3.85;3.53;;;;;;;25.99;45.63;97178.03;5003343;28;20120;-59
2022/06/18 13:54:12;;;;;;;4.25;3.50;;;;;;;25.49;47.34;97181.31;5004546;28;20057;-60
2022/06/18 13:56:56;;;;;;;4.43;3.10;;;;;;;24.93;48.96;97187.09;5003293;28;20057;-59
2022/06/18 13:59:23;;;;;;;3.90;3.60;;;;;;;25.08;49.29;97183.28;5004467;28;20063;-60
2022/06/18 14:02:02;;;;;;;4.53;3.33;;;;;;;24.96;46.52;97067.91;5003202;28;20145;-59
2022/06/18 14:04:36;;;;;;;3.28;3.05;;;;;;;26.61;44.20;97188.75;5004768;28;20422;-60
2022/06/18 14:07:12;;;;;;;3.42;3.10;;;;;;;26.33;43.60;97110.47;5004444;28;20050;-60
2022/06/18 14:09:47;;;;;;;3.85;3.53;;;;;;;28.70;41.17;97160.38;5002606;28;20238;-60
2022/06/18 14:12:24;;;;;;;3.90;3.50;;;;;;;29.47;39.59;97184.69;5004412;28;20050;-60
2022/06/18 14:15:12;;;;;;;3.92;3.72;;;;;;;29.66;38.78;97174.69;5004227;28;20526;-59
2022/06/18 14:17:49;;;;;;;4.35;3.50;;;;;;;30.21;38.65;97215.59;5006866;28;20049;-59
2022/06/18 14:20:30;;;;;;;3.60;3.40;;;;;;;27.91;41.32;97194.13;5022298;28;20049;-60
2022/06/18 14:23:24;;;;;;;4.30;3.47;;;;;;;27.15;41.87;97195.69;5022596;28;20076;-61
2022/06/18 14:25:54;;;;;;;;;;;;;;;26.74;43.28;97194.31;5023060;28;20060;-59
2022/06/18 14:28:33;;;;;;;3.80;3.50;;;;;;;27.94;41.09;97189.50;5023868;28;19931;-58
2022/06/18 14:31:09;;;;;;;3.80;3.50;;;;;;;28.87;40.34;97187.16;5023693;28;20057;-59
2022/06/18 14:34:08;;;;;;;3.88;3.63;;;;;;;29.14;38.49;97098.50;5022009;28;20508;-62
2022/06/18 14:36:40;;;;;;;3.63;3.33;;;;;;;27.38;42.16;97169.47;5017825;28;20143;-60
2022/06/18 14:39:23;;;;;;;3.80;3.60;;;;;;;27.38;42.62;97186.53;5022708;28;20053;-61
2022/06/18 14:42:03;;;;;;;3.53;3.28;;;;;;;26.98;42.44;97118.47;5022296;28;20087;-59
2022/06/18 14:44:36;;;;;;;3.65;3.38;;;;;;;27.35;42.31;97199.66;5022099;28;20045;-60
2022/06/18 14:47:38;;;;;;;3.67;3.47;;;;;;;27.69;40.70;97196.41;5022519;28;20651;-61